Wetterdaten: aktuell Mittwoch, 06.07.2022 00:49
Datum Zeit Temp. Innen Temp. Auen Feuchte Inn. Feuchte Au. Luftdruck Regen Wind W.-Richtung W.-Richtung Taupunkt Temp. gefh.
06.07.2022 00:49 28,3 C 15,8 C 28 % 56 % 1020,2 hPa 0,0 l/m 0,0 km/h (0 Bft) N 360 7,0 C 15,8 C
05.07.2022 23:49 28,6 C 16,5 C 28 % 53 % 1020,0 hPa 0,0 l/m 0,0 km/h (0 Bft) N 360 6,9 C 16,5 C
05.07.2022 22:49 29,0 C 17,9 C 27 % 54 % 1019,7 hPa 0,0 l/m 0,0 km/h (0 Bft) N 360 8,5 C 17,9 C
05.07.2022 21:49 29,5 C 19,5 C 26 % 48 % 1018,2 hPa 0,0 l/m 0,0 km/h (0 Bft) N 360 8,2 C 19,5 C
05.07.2022 20:49 30,0 C 21,3 C 25 % 42 % 1017,7 hPa 0,0 l/m 0,0 km/h (0 Bft) N 360 7,9 C 21,3 C
05.07.2022 19:49 30,6 C 22,6 C 25 % 38 % 1017,4 hPa 0,0 l/m 0,0 km/h (0 Bft) N 360 7,6 C 22,6 C
05.07.2022 18:49 31,1 C 24,3 C 24 % 36 % 1017,0 hPa 0,0 l/m 0,0 km/h (0 Bft) N 360 8,3 C 24,3 C
05.07.2022 17:49 31,6 C 25,9 C 23 % 32 % 1016,6 hPa 0,0 l/m 0,0 km/h (0 Bft) N 360 7,9 C 25,9 C
05.07.2022 16:49 30,6 C 26,2 C 25 % 32 % 1016,6 hPa 0,0 l/m 0,0 km/h (0 Bft) N 360 8,2 C 26,2 C
05.07.2022 15:49 30,1 C 25,9 C 25 % 32 % 1016,6 hPa 0,0 l/m 0,0 km/h (0 Bft) N 360 7,9 C 25,9 C
05.07.2022 14:49 29,7 C 26,7 C 25 % 31 % 1016,4 hPa 0,0 l/m 0,0 km/h (0 Bft) N 360 8,2 C 26,7 C
05.07.2022 13:49 29,1 C 24,7 C 26 % 34 % 1016,9 hPa 0,0 l/m 0,0 km/h (0 Bft) N 360 7,8 C 24,7 C
05.07.2022 12:49 28,8 C 24,2 C 27 % 36 % 1017,0 hPa 0,0 l/m 0,0 km/h (0 Bft) N 360 8,2 C 24,2 C
05.07.2022 11:49 28,3 C 22,6 C 27 % 41 % 1017,4 hPa 0,0 l/m 0,0 km/h (0 Bft) N 360 8,7 C 22,6 C
05.07.2022 10:49 28,0 C 20,9 C 28 % 46 % 1017,8 hPa 0,0 l/m 0,0 km/h (0 Bft) N 360 8,8 C 20,9 C
05.07.2022 09:49 27,8 C 19,3 C 28 % 50 % 1018,2 hPa 0,0 l/m 0,0 km/h (0 Bft) N 360 8,6 C 19,3 C
05.07.2022 08:49 27,6 C 17,9 C 29 % 52 % 1018,6 hPa 0,0 l/m 0,0 km/h (0 Bft) N 360 7,9 C 17,9 C
05.07.2022 07:49 27,4 C 16,4 C 30 % 60 % 1017,9 hPa 0,0 l/m 0,0 km/h (0 Bft) N 360 8,6 C 16,4 C
05.07.2022 06:49 27,2 C 14,1 C 30 % 67 % 1018,5 hPa 0,0 l/m 0,0 km/h (0 Bft) N 360 8,1 C 14,1 C
05.07.2022 05:49 27,0 C 12,8 C 30 % 67 % 1018,8 hPa 0,0 l/m 0,0 km/h (0 Bft) N 360 6,8 C 12,8 C
05.07.2022 04:49 27,1 C 13,5 C 30 % 63 % 1018,7 hPa 0,0 l/m 0,0 km/h (0 Bft) N 360 6,6 C 13,5 C
05.07.2022 03:49 27,4 C 14,7 C 29 % 58 % 1018,3 hPa 0,0 l/m 0,0 km/h (0 Bft) N 360 6,5 C 14,7 C
05.07.2022 02:49 27,5 C 15,5 C 29 % 56 % 1018,1 hPa 0,0 l/m 0,0 km/h (0 Bft) N 360 6,8 C 15,5 C
05.07.2022 01:49 27,7 C 16,1 C 30 % 55 % 1018,0 hPa 0,0 l/m 0,0 km/h (0 Bft) N 360 7,1 C 16,1 C
05.07.2022 01:00 27,9 C 16,4 C 30 % 56 % 1017,9 hPa 0,0 l/m 0,0 km/h (0 Bft) N 360 7,6 C 16,4 C
_ Min-Zeit 05:12 05:38 17:02 17:32 14:59 - 01:00 - - 04:19 05:38
Minimum _ 27,0 C 12,8 C 23 % 29 % 1015,2 hPa - 0,0 km/h (0 Bft) - - 6,3 C 12,8 C
_ Max-Zeit 17:25 17:27 01:00 05:56 00:28 01:00 01:00 - - 17:22 17:27
Maximum _ 31,8 C 28,3 C 30 % 68 % 1020,2 hPa 0,0 l/m 0,0 km/h
N (0 Bft)
- - 9,2 C 28,3 C
Durchschnitt _ 28,7 C 19,8 C 27 % 48 % 1017,9 hPa #0,0 l/m 0,0 km/h (0 Bft) - - - 7,7 C 19,8 C